Alat, Azerbaijan

8:11 AM AZST on August 28, 2014 (GMT +0500)
Bina | Change Station
CLOSE
Current Station
Airport
Location: Baku,
Elevation: 0 ft
Nearby Weather Stations

Elev 0 ft 40.45 °N, 50.07 °E | Updated 11 minutes ago

Clear
Clear
72 °F
Feels Like 72 °F
N
4
Wind Variable Wind from WNW

Today
High -- | Low -- °F
--% Chance of Precip.
Yesterday
High -- | Low -- °F
Precip. -- in
7:06 AM 8:20 PM
Waxing Crescent, 6% visible
Pressure 29.80 in
Visibility -9999.0 miles
Clouds
Dew Point 68 °F
Humidity 88%
Rainfall 0.00 in
Snow Depth Not available.
UV Not available.
Pollen Not available.
Air Quality Not available.
Flu Activity Not available.
METAR UBBB 280300Z 29003KT CAVOK 22/20 Q1009 88CLRD70 NOSIG

More Conditions Fewer Conditions

Pressure 29.80 in
Visibility -9999.0 miles
Clouds
Dew Point 68 °F
Humidity 88%
Rainfall 0.00 in
Snow Depth Not available.
UV Not available.
Pollen Not available.
Air Quality Not available.
Flu Activity Not available.
METAR UBBB 280300Z 29003KT CAVOK 22/20 Q1009 88CLRD70 NOSIG

More Conditions Fewer Conditions

10-Day Weather Forecast

Almanac

Astronomy

Aug. 28, 2014 Rise Set
Actual Time 7:06 AM AZST 8:20 PM AZST
Civil Twilight 6:38 AM AZST 8:48 PM AZST
Nautical Twilight 6:04 AM AZST 9:22 PM AZST
Astronomical Twilight 5:29 AM AZST 9:57 PM AZST
Moon 9:36 AM AZST 9:32 PM AZST
Length of Visible Light 14h 10m
Length of Day
13h 14m
Tomorrow will be 2m 29s shorter.
Waxing Crescent, 6% of the Moon is Illuminated
Aug 27
Waxing Crescent
Sep 2
First Quarter
Sep 8
Full
Sep 15
Last Quarter
Sep 24
New

Yesterday's Extremes

Country Highs Country Lows

Community

WunderPhotos

Upload Photos

1,747,892 photos uploaded!

Nearby

Snow Depth

Not available.

Earthquake Activity

City Distance Mag. Time & Date
No recent earthquake activity has been reported nearby.
Minimum magnitude displayed is 2.5.

Coastal Water Temperatures

Place Temperature
No Stations Reporting

Nearby Weather Stations